createdAt,value
2017-06-10T00:00:17.090Z,12.18
2017-06-10T00:01:17.704Z,12.21
2017-06-10T00:02:18.317Z,12.21
2017-06-10T00:03:18.963Z,12.22
2017-06-10T00:04:19.583Z,12.24
2017-06-10T00:05:20.250Z,12.20
2017-06-10T00:06:20.861Z,12.24
2017-06-10T00:07:21.511Z,12.22
2017-06-10T00:08:22.125Z,12.21
2017-06-10T00:09:22.744Z,12.15
2017-06-10T00:10:23.363Z,12.18
2017-06-10T00:11:23.979Z,12.10
2017-06-10T00:12:24.594Z,12.20
2017-06-10T00:13:25.204Z,12.21
2017-06-10T00:14:25.816Z,12.12
2017-06-10T00:15:26.431Z,12.06
2017-06-10T00:16:27.047Z,12.09
2017-06-10T00:17:27.659Z,12.12
2017-06-10T00:18:28.274Z,12.09
2017-06-10T00:19:28.894Z,12.13
2017-06-10T00:20:29.506Z,12.10
2017-06-10T00:21:30.119Z,12.07
2017-06-10T00:22:30.734Z,12.04
2017-06-10T00:23:31.353Z,12.03
2017-06-10T00:24:31.970Z,12.10
2017-06-10T00:25:32.636Z,11.99
2017-06-10T00:26:33.248Z,12.06
2017-06-10T00:27:33.861Z,12.10
2017-06-10T00:28:34.476Z,11.91
2017-06-10T00:29:35.096Z,12.00
2017-06-10T00:30:35.707Z,12.03
2017-06-10T00:31:36.327Z,11.95
2017-06-10T00:32:36.944Z,12.00
2017-06-10T00:33:37.555Z,11.99
2017-06-10T00:34:38.170Z,11.91
2017-06-10T00:35:38.833Z,11.99
2017-06-10T00:36:39.454Z,11.95
2017-06-10T00:37:40.066Z,12.06
2017-06-10T00:38:40.679Z,12.13
2017-06-10T00:39:41.298Z,12.10
2017-06-10T00:40:41.909Z,12.18
2017-06-10T00:41:42.522Z,12.10
2017-06-10T00:42:43.136Z,12.09
2017-06-10T00:43:43.751Z,12.09
2017-06-10T00:44:44.373Z,12.10
2017-06-10T00:45:44.983Z,12.09
2017-06-10T00:46:45.599Z,12.12
2017-06-10T00:47:46.212Z,12.10
2017-06-10T00:48:46.825Z,12.09
2017-06-10T00:49:47.439Z,12.06
2017-06-10T00:50:48.052Z,12.18
2017-06-10T00:51:48.672Z,12.15
2017-06-10T00:52:49.284Z,12.09
2017-06-10T00:53:49.932Z,12.06
2017-06-10T00:54:50.547Z,12.17
2017-06-10T00:55:51.161Z,12.12
2017-06-10T00:56:51.774Z,12.09
2017-06-10T00:57:52.388Z,12.10
2017-06-10T00:58:53.002Z,12.13
2017-06-10T00:59:53.614Z,12.06
2017-06-10T01:00:54.279Z,12.10
2017-06-10T01:01:54.894Z,12.12
2017-06-10T01:02:55.509Z,11.99
2017-06-10T01:03:56.130Z,12.02
2017-06-10T01:04:56.744Z,12.00
2017-06-10T01:05:57.406Z,12.00
2017-06-10T01:06:58.052Z,11.99
2017-06-10T01:07:58.665Z,12.02
2017-06-10T01:08:59.280Z,11.94
2017-06-10T01:09:59.894Z,11.95
2017-06-10T01:11:00.565Z,11.91
2017-06-10T01:12:01.176Z,11.94
2017-06-10T01:13:01.794Z,11.91
2017-06-10T01:14:02.406Z,11.99
2017-06-10T01:15:03.023Z,12.02
2017-06-10T01:16:03.683Z,11.88
2017-06-10T01:17:04.299Z,11.90
2017-06-10T01:18:04.913Z,11.87
2017-06-10T01:19:05.526Z,11.83
2017-06-10T01:20:06.149Z,11.86
2017-06-10T01:21:06.808Z,11.86
2017-06-10T01:22:07.422Z,11.87
2017-06-10T01:23:08.036Z,11.90
2017-06-10T01:24:08.658Z,11.86
2017-06-10T01:25:09.274Z,11.87
2017-06-10T01:26:09.935Z,11.83
2017-06-10T01:27:10.554Z,11.77
2017-06-10T01:28:11.164Z,11.83
2017-06-10T01:29:11.779Z,11.73
2017-06-10T01:30:12.395Z,11.86
2017-06-10T01:31:13.061Z,11.81
2017-06-10T01:32:13.680Z,11.78
2017-06-10T01:33:14.289Z,11.80
2017-06-10T01:34:14.908Z,11.80
2017-06-10T01:35:15.519Z,11.73
2017-06-10T01:36:16.135Z,11.80
2017-06-10T01:37:16.749Z,11.70
2017-06-10T01:38:17.363Z,11.70
2017-06-10T01:39:17.981Z,11.70
2017-06-10T01:40:18.594Z,11.70
2017-06-10T01:41:19.207Z,11.63
2017-06-10T01:42:19.852Z,11.65
2017-06-10T01:43:20.471Z,11.63
2017-06-10T01:44:21.081Z,11.57
2017-06-10T01:45:21.700Z,11.59
2017-06-10T01:46:22.364Z,11.60
2017-06-10T01:47:22.977Z,11.55
2017-06-10T01:48:23.591Z,11.54
2017-06-10T01:49:24.204Z,11.57
2017-06-10T01:50:24.818Z,11.59
2017-06-10T01:51:25.488Z,11.50
2017-06-10T01:52:26.110Z,11.57
2017-06-10T01:53:26.714Z,11.54
2017-06-10T01:54:27.328Z,11.54
2017-06-10T01:55:27.942Z,11.57
2017-06-10T01:56:28.607Z,11.47
2017-06-10T01:57:29.221Z,11.44
2017-06-10T01:58:29.837Z,11.48
2017-06-10T01:59:30.451Z,11.52
2017-06-10T02:00:31.065Z,11.50
2017-06-10T02:01:31.680Z,11.35
2017-06-10T02:02:32.293Z,11.35
2017-06-10T02:03:32.907Z,11.40
2017-06-10T02:04:33.520Z,11.40
2017-06-10T02:05:34.135Z,11.32
2017-06-10T02:06:34.747Z,11.35
2017-06-10T02:07:35.399Z,11.37
2017-06-10T02:08:36.019Z,11.45
2017-06-10T02:09:36.636Z,11.40
2017-06-10T02:10:37.253Z,11.41
2017-06-10T02:11:37.862Z,11.41
2017-06-10T02:12:38.475Z,11.35
2017-06-10T02:13:39.088Z,11.29
2017-06-10T02:14:39.701Z,11.30
2017-06-10T02:15:40.314Z,11.30
2017-06-10T02:16:40.978Z,11.33
2017-06-10T02:17:41.597Z,11.44
2017-06-10T02:18:42.206Z,11.35
2017-06-10T02:19:42.820Z,11.35
2017-06-10T02:20:43.465Z,11.36
2017-06-10T02:21:44.078Z,11.43
2017-06-10T02:22:44.692Z,11.40
2017-06-10T02:23:45.305Z,11.36
2017-06-10T02:24:45.922Z,11.40
2017-06-10T02:25:46.539Z,11.44
2017-06-10T02:26:47.200Z,11.35
2017-06-10T02:27:47.813Z,11.33
2017-06-10T02:28:48.431Z,11.40
2017-06-10T02:29:49.043Z,11.41
2017-06-10T02:30:49.661Z,11.45
2017-06-10T02:31:50.322Z,11.47
2017-06-10T02:32:50.943Z,11.43
2017-06-10T02:33:51.553Z,11.47
2017-06-10T02:34:52.170Z,11.47
2017-06-10T02:35:52.780Z,11.45
2017-06-10T02:36:53.398Z,11.47
2017-06-10T02:37:54.009Z,11.45
2017-06-10T02:38:54.622Z,11.41
2017-06-10T02:39:55.235Z,11.48
2017-06-10T02:40:55.850Z,11.47
2017-06-10T02:41:56.520Z,11.44
2017-06-10T02:42:57.131Z,11.54
2017-06-10T02:43:57.745Z,11.48
2017-06-10T02:44:58.396Z,11.47
2017-06-10T02:45:59.007Z,11.59
2017-06-10T02:46:59.618Z,11.59
2017-06-10T02:48:00.232Z,11.57
2017-06-10T02:49:00.845Z,11.57
2017-06-10T02:50:01.461Z,11.55
2017-06-10T02:51:02.082Z,11.57
2017-06-10T02:52:02.691Z,11.60
2017-06-10T02:53:03.346Z,11.59
2017-06-10T02:54:03.957Z,11.55
2017-06-10T02:55:04.604Z,11.59
2017-06-10T02:56:05.216Z,11.59
2017-06-10T02:57:05.881Z,11.62
2017-06-10T02:58:06.493Z,11.62
2017-06-10T02:59:07.113Z,11.68
2017-06-10T03:00:07.726Z,11.73
2017-06-10T03:01:08.341Z,11.73
2017-06-10T03:02:09.004Z,11.66
2017-06-10T03:03:09.618Z,11.77
2017-06-10T03:04:10.232Z,11.70
2017-06-10T03:05:10.851Z,11.69
2017-06-10T03:06:11.467Z,11.72
2017-06-10T03:07:12.136Z,11.72
2017-06-10T03:08:12.754Z,11.63
2017-06-10T03:09:13.362Z,11.65
2017-06-10T03:10:13.981Z,11.66
2017-06-10T03:11:14.591Z,11.54
2017-06-10T03:12:15.256Z,11.62
2017-06-10T03:13:15.876Z,11.55
2017-06-10T03:14:16.486Z,11.65
2017-06-10T03:15:17.107Z,11.59
2017-06-10T03:16:17.753Z,11.59
2017-06-10T03:17:18.367Z,11.55
2017-06-10T03:18:18.979Z,11.57
2017-06-10T03:19:19.593Z,11.59
2017-06-10T03:20:20.208Z,11.50
2017-06-10T03:21:20.827Z,11.44
2017-06-10T03:22:21.438Z,11.47
2017-06-10T03:23:22.087Z,11.41
2017-06-10T03:24:22.701Z,11.44
2017-06-10T03:25:23.313Z,11.41
2017-06-10T03:26:23.933Z,11.36
2017-06-10T03:27:24.549Z,11.35
2017-06-10T03:28:25.159Z,11.37
2017-06-10T03:29:25.773Z,11.37
2017-06-10T03:30:26.388Z,11.40
2017-06-10T03:31:27.003Z,11.41
2017-06-10T03:32:27.667Z,11.43
2017-06-10T03:33:28.319Z,11.43
2017-06-10T03:34:28.965Z,11.48
2017-06-10T03:35:29.578Z,11.44
2017-06-10T03:36:30.194Z,11.36
2017-06-10T03:37:30.860Z,11.47
2017-06-10T03:38:31.502Z,11.40
2017-06-10T03:39:32.122Z,11.40
2017-06-10T03:40:32.737Z,11.36
2017-06-10T03:41:33.352Z,11.43
2017-06-10T03:42:34.015Z,11.48
2017-06-10T03:43:34.629Z,11.47
2017-06-10T03:44:35.243Z,11.52
2017-06-10T03:45:35.889Z,11.47
2017-06-10T03:46:36.512Z,11.51
2017-06-10T03:47:37.167Z,11.50
2017-06-10T03:48:37.781Z,11.55
2017-06-10T03:49:38.397Z,11.59
2017-06-10T03:50:39.049Z,11.62
2017-06-10T03:51:39.661Z,11.57
2017-06-10T03:52:40.330Z,11.54
2017-06-10T03:53:40.946Z,11.52
2017-06-10T03:54:41.557Z,11.63
2017-06-10T03:55:42.173Z,11.51
2017-06-10T03:56:42.795Z,11.47
2017-06-10T03:57:43.457Z,11.47
2017-06-10T03:58:44.076Z,11.47
2017-06-10T03:59:44.688Z,11.45
2017-06-10T04:00:45.320Z,11.50
2017-06-10T04:01:45.930Z,11.41
2017-06-10T04:02:46.546Z,11.47
2017-06-10T04:03:47.160Z,11.48
2017-06-10T04:04:47.779Z,11.47
2017-06-10T04:05:48.392Z,11.52
2017-06-10T04:06:49.014Z,11.47
2017-06-10T04:07:49.681Z,11.51
2017-06-10T04:08:50.327Z,11.51
2017-06-10T04:09:50.948Z,11.51
2017-06-10T04:10:51.559Z,11.57
2017-06-10T04:11:52.175Z,11.57
2017-06-10T04:12:52.840Z,11.60
2017-06-10T04:13:53.453Z,11.55
2017-06-10T04:14:54.068Z,11.57
2017-06-10T04:15:54.683Z,11.57
2017-06-10T04:16:55.297Z,11.59
2017-06-10T04:17:55.917Z,11.65
2017-06-10T04:18:56.528Z,11.63
2017-06-10T04:19:57.145Z,11.63
2017-06-10T04:20:57.759Z,11.62
2017-06-10T04:21:58.378Z,11.72
2017-06-10T04:22:59.045Z,11.68
2017-06-10T04:23:59.660Z,11.78
2017-06-10T04:25:00.275Z,11.66
2017-06-10T04:26:00.890Z,11.75
2017-06-10T04:27:01.510Z,11.70
2017-06-10T04:28:02.128Z,11.68
2017-06-10T04:29:02.744Z,11.68
2017-06-10T04:30:03.392Z,11.72
2017-06-10T04:31:04.005Z,11.75
2017-06-10T04:32:04.626Z,11.70
2017-06-10T04:33:05.289Z,11.73
2017-06-10T04:34:05.904Z,11.72
2017-06-10T04:35:06.517Z,11.81
2017-06-10T04:36:07.137Z,11.75
2017-06-10T04:37:07.749Z,11.73
2017-06-10T04:38:08.365Z,11.69
2017-06-10T04:39:08.980Z,11.73
2017-06-10T04:40:09.594Z,11.62
2017-06-10T04:41:10.214Z,11.62
2017-06-10T04:42:10.825Z,11.59
2017-06-10T04:43:11.489Z,11.62
2017-06-10T04:44:12.105Z,11.57
2017-06-10T04:45:12.759Z,11.52
2017-06-10T04:46:13.372Z,11.55
2017-06-10T04:47:13.987Z,11.54
2017-06-10T04:48:14.634Z,11.55
2017-06-10T04:49:15.283Z,11.60
2017-06-10T04:50:15.899Z,11.63
2017-06-10T04:51:16.548Z,11.57
2017-06-10T04:52:17.168Z,11.68
2017-06-10T04:53:17.780Z,11.63
2017-06-10T04:54:18.426Z,11.72
2017-06-10T04:55:19.042Z,11.66
2017-06-10T04:56:19.657Z,11.57
2017-06-10T04:57:20.276Z,11.62
2017-06-10T04:58:20.942Z,11.59
2017-06-10T04:59:21.561Z,11.59
2017-06-10T05:00:22.173Z,11.60
2017-06-10T05:01:22.794Z,11.54
2017-06-10T05:02:23.405Z,11.54
2017-06-10T05:03:24.073Z,11.54
2017-06-10T05:04:24.686Z,11.47
2017-06-10T05:05:25.301Z,11.45
2017-06-10T05:06:25.922Z,11.50
2017-06-10T05:07:26.533Z,11.48
2017-06-10T05:08:27.196Z,11.48
2017-06-10T05:09:27.813Z,11.48
2017-06-10T05:10:28.427Z,11.54
2017-06-10T05:11:29.048Z,11.45
2017-06-10T05:12:29.660Z,11.47
2017-06-10T05:13:30.278Z,11.43
2017-06-10T05:14:30.889Z,11.33
2017-06-10T05:15:31.506Z,11.30
2017-06-10T05:16:32.127Z,11.25
2017-06-10T05:17:32.739Z,11.33
2017-06-10T05:18:33.354Z,11.26
2017-06-10T05:19:33.968Z,11.27
2017-06-10T05:20:34.583Z,11.17
2017-06-10T05:21:35.196Z,11.22
2017-06-10T05:22:35.818Z,11.19
2017-06-10T05:23:36.430Z,11.26
2017-06-10T05:24:37.051Z,11.29
2017-06-10T05:25:37.698Z,11.26
2017-06-10T05:26:38.318Z,11.23
2017-06-10T05:27:38.931Z,11.26
2017-06-10T05:28:39.595Z,11.29
2017-06-10T05:29:40.243Z,11.32
2017-06-10T05:30:40.858Z,11.35
2017-06-10T05:31:41.474Z,11.29
2017-06-10T05:32:42.093Z,11.44
2017-06-10T05:33:42.755Z,11.43
2017-06-10T05:34:43.370Z,11.51
2017-06-10T05:35:43.985Z,11.54
2017-06-10T05:36:44.600Z,11.55
2017-06-10T05:37:45.215Z,11.63
2017-06-10T05:38:45.835Z,11.62
2017-06-10T05:39:46.447Z,11.66
2017-06-10T05:40:47.094Z,11.72
2017-06-10T05:41:47.745Z,11.72
2017-06-10T05:42:48.362Z,11.78
2017-06-10T05:43:49.024Z,11.80
2017-06-10T05:44:49.641Z,11.77
2017-06-10T05:45:50.256Z,11.90
2017-06-10T05:46:50.871Z,11.87
2017-06-10T05:47:51.485Z,11.91
2017-06-10T05:48:52.156Z,11.91
2017-06-10T05:49:52.773Z,11.95
2017-06-10T05:50:53.387Z,11.95
2017-06-10T05:51:54.001Z,11.95
2017-06-10T05:52:54.617Z,12.03
2017-06-10T05:53:55.233Z,12.00
2017-06-10T05:54:55.853Z,12.09
2017-06-10T05:55:56.470Z,12.03
2017-06-10T05:56:57.087Z,12.09
2017-06-10T05:57:57.699Z,12.10
2017-06-10T05:58:58.354Z,12.12
2017-06-10T05:59:58.967Z,12.09
2017-06-10T06:00:59.614Z,12.10
2017-06-10T06:02:00.228Z,12.09
2017-06-10T06:03:00.843Z,12.10
2017-06-10T06:04:01.514Z,12.12
2017-06-10T06:05:02.134Z,12.12
2017-06-10T06:06:02.746Z,12.15
2017-06-10T06:07:03.362Z,12.02
2017-06-10T06:08:03.982Z,12.18
2017-06-10T06:09:04.599Z,12.22
2017-06-10T06:10:05.248Z,12.22
2017-06-10T06:11:05.867Z,12.10
2017-06-10T06:12:06.478Z,12.20
2017-06-10T06:13:07.095Z,12.24
2017-06-10T06:14:07.768Z,12.31
2017-06-10T06:15:08.375Z,12.31
2017-06-10T06:16:08.999Z,12.27
2017-06-10T06:17:09.645Z,12.25
2017-06-10T06:18:10.264Z,12.27
2017-06-10T06:19:10.882Z,12.24
2017-06-10T06:20:11.503Z,12.31
2017-06-10T06:21:12.117Z,12.32
2017-06-10T06:22:12.765Z,12.28
2017-06-10T06:23:13.380Z,12.32
2017-06-10T06:24:14.050Z,12.43
2017-06-10T06:25:14.666Z,12.53
2017-06-10T06:26:15.281Z,12.47
2017-06-10T06:27:15.902Z,12.46
2017-06-10T06:28:16.557Z,12.50
2017-06-10T06:29:17.214Z,12.53
2017-06-10T06:30:17.833Z,12.45
2017-06-10T06:31:18.450Z,12.46
2017-06-10T06:32:19.065Z,12.60
2017-06-10T06:33:19.683Z,12.55
2017-06-10T06:34:20.347Z,12.64
2017-06-10T06:35:20.971Z,12.57
2017-06-10T06:36:21.587Z,12.57
2017-06-10T06:37:22.202Z,12.50
2017-06-10T06:38:22.818Z,12.67
2017-06-10T06:39:23.489Z,12.67
2017-06-10T06:40:24.104Z,12.70
2017-06-10T06:41:24.727Z,12.53
2017-06-10T06:42:25.348Z,12.68
2017-06-10T06:43:25.960Z,12.55
2017-06-10T06:44:26.576Z,12.65
2017-06-10T06:45:27.194Z,12.70
2017-06-10T06:46:27.811Z,12.72
2017-06-10T06:47:28.432Z,12.72
2017-06-10T06:48:29.055Z,12.83
2017-06-10T06:49:29.661Z,12.85
2017-06-10T06:50:30.276Z,12.87
2017-06-10T06:51:30.893Z,12.86
2017-06-10T06:52:31.519Z,12.94
2017-06-10T06:53:32.165Z,12.87
2017-06-10T06:54:32.835Z,12.87
2017-06-10T06:55:33.448Z,12.87
2017-06-10T06:56:34.097Z,12.93
2017-06-10T06:57:34.714Z,12.94
2017-06-10T06:58:35.333Z,13.01
2017-06-10T06:59:35.951Z,13.01
2017-06-10T07:00:36.566Z,13.03
2017-06-10T07:01:37.189Z,13.11
2017-06-10T07:02:37.809Z,13.05
2017-06-10T07:03:38.431Z,13.09
2017-06-10T07:04:39.135Z,13.04
2017-06-10T07:05:39.751Z,13.22
2017-06-10T07:06:40.367Z,13.04
2017-06-10T07:07:40.983Z,13.05
2017-06-10T07:08:41.607Z,13.18
2017-06-10T07:09:42.222Z,13.12
2017-06-10T07:10:42.846Z,13.13
2017-06-10T07:11:43.459Z,13.13
2017-06-10T07:12:44.076Z,13.19
2017-06-10T07:13:44.694Z,13.23
2017-06-10T07:14:45.362Z,13.33
2017-06-10T07:15:45.987Z,13.38
2017-06-10T07:16:46.601Z,13.35
2017-06-10T07:17:47.226Z,13.33
2017-06-10T07:18:47.840Z,13.42
2017-06-10T07:19:48.508Z,13.44
2017-06-10T07:20:49.125Z,13.52
2017-06-10T07:21:49.743Z,13.49
2017-06-10T07:22:50.361Z,13.44
2017-06-10T07:23:50.977Z,13.50
2017-06-10T07:24:51.596Z,13.46
2017-06-10T07:25:52.211Z,13.52
2017-06-10T07:26:52.827Z,13.54
2017-06-10T07:27:53.447Z,13.56
2017-06-10T07:28:54.068Z,13.65
2017-06-10T07:29:54.688Z,13.67
2017-06-10T07:30:55.302Z,13.72
2017-06-10T07:31:55.919Z,13.72
2017-06-10T07:32:56.537Z,13.63
2017-06-10T07:33:57.155Z,13.59
2017-06-10T07:34:57.772Z,13.67
2017-06-10T07:35:58.391Z,13.67
2017-06-10T07:36:59.040Z,13.62
2017-06-10T07:37:59.657Z,13.72
2017-06-10T07:39:00.279Z,13.83
2017-06-10T07:40:00.897Z,13.75
2017-06-10T07:41:01.513Z,13.87
2017-06-10T07:42:02.169Z,13.93
2017-06-10T07:43:02.826Z,13.99
2017-06-10T07:44:03.438Z,14.05
2017-06-10T07:45:04.086Z,14.08
2017-06-10T07:46:04.704Z,14.12
2017-06-10T07:47:05.321Z,14.15
2017-06-10T07:48:05.939Z,14.18
2017-06-10T07:49:06.565Z,14.29
2017-06-10T07:50:07.223Z,14.14
2017-06-10T07:51:07.838Z,14.12
2017-06-10T07:52:08.454Z,14.10
2017-06-10T07:53:09.071Z,14.07
2017-06-10T07:54:09.690Z,14.14
2017-06-10T07:55:10.362Z,14.18
2017-06-10T07:56:10.979Z,14.32
2017-06-10T07:57:11.602Z,14.33
2017-06-10T07:58:12.217Z,14.41
2017-06-10T07:59:12.836Z,14.33
2017-06-10T08:00:13.453Z,14.47
2017-06-10T08:01:14.072Z,14.50
2017-06-10T08:02:14.689Z,14.51
2017-06-10T08:03:15.311Z,14.62
2017-06-10T08:04:15.926Z,14.69
2017-06-10T08:05:16.545Z,14.79
2017-06-10T08:06:17.169Z,14.82
2017-06-10T08:07:17.826Z,14.82
2017-06-10T08:08:18.447Z,14.82
2017-06-10T08:09:19.062Z,14.79
2017-06-10T08:10:19.731Z,14.89
2017-06-10T08:11:20.351Z,14.92
2017-06-10T08:12:20.967Z,14.96
2017-06-10T08:13:21.584Z,14.99
2017-06-10T08:14:22.205Z,15.03
2017-06-10T08:15:22.878Z,15.02
2017-06-10T08:16:23.528Z,15.09
2017-06-10T08:17:24.146Z,15.11
2017-06-10T08:18:24.801Z,15.15
2017-06-10T08:19:25.414Z,15.21
2017-06-10T08:20:26.033Z,15.21
2017-06-10T08:21:26.653Z,15.35
2017-06-10T08:22:27.271Z,15.35
2017-06-10T08:23:27.890Z,15.37
2017-06-10T08:24:28.508Z,15.43
2017-06-10T08:25:29.126Z,15.29
2017-06-10T08:26:29.744Z,15.37
2017-06-10T08:27:30.401Z,15.19
2017-06-10T08:28:31.022Z,15.15
2017-06-10T08:29:31.640Z,15.24
2017-06-10T08:30:32.264Z,15.24
2017-06-10T08:31:32.888Z,15.21
2017-06-10T08:32:33.504Z,15.09
2017-06-10T08:33:34.124Z,15.07
2017-06-10T08:34:34.742Z,15.17
2017-06-10T08:35:35.361Z,15.18
2017-06-10T08:36:35.984Z,15.36
2017-06-10T08:37:36.602Z,15.18
2017-06-10T08:38:37.219Z,15.17
2017-06-10T08:39:37.837Z,15.21
2017-06-10T08:40:38.506Z,15.11
2017-06-10T08:41:39.127Z,15.19
2017-06-10T08:42:39.747Z,15.21
2017-06-10T08:43:40.363Z,15.33
2017-06-10T08:44:41.014Z,15.31
2017-06-10T08:45:41.683Z,15.15
2017-06-10T08:46:42.301Z,15.14
2017-06-10T08:47:42.920Z,15.24
2017-06-10T08:48:43.540Z,15.19
2017-06-10T08:49:44.159Z,15.19
2017-06-10T08:50:44.827Z,15.33
2017-06-10T08:51:45.445Z,15.28
2017-06-10T08:52:46.065Z,15.37
2017-06-10T08:53:46.691Z,15.39
2017-06-10T08:54:47.306Z,15.54
2017-06-10T08:55:47.976Z,15.57
2017-06-10T08:56:48.594Z,15.64
2017-06-10T08:57:49.213Z,15.76
2017-06-10T08:58:49.831Z,15.70
2017-06-10T08:59:50.453Z,15.72
2017-06-10T09:00:51.069Z,15.82
2017-06-10T09:01:51.688Z,15.80
2017-06-10T09:02:52.316Z,15.79
2017-06-10T09:03:52.933Z,15.82
2017-06-10T09:04:53.551Z,15.82
2017-06-10T09:05:54.219Z,15.92
2017-06-10T09:06:54.839Z,15.97
2017-06-10T09:07:55.463Z,15.95
2017-06-10T09:08:56.081Z,15.98
2017-06-10T09:09:56.699Z,15.90
2017-06-10T09:10:57.323Z,15.83
2017-06-10T09:11:57.946Z,15.84
2017-06-10T09:12:58.563Z,15.83
2017-06-10T09:13:59.183Z,16.00
2017-06-10T09:14:59.803Z,15.91
2017-06-10T09:16:00.455Z,15.97
2017-06-10T09:17:01.077Z,15.92
2017-06-10T09:18:01.697Z,16.04
2017-06-10T09:19:02.316Z,16.05
2017-06-10T09:20:02.938Z,16.15
2017-06-10T09:21:03.604Z,16.04
2017-06-10T09:22:04.224Z,16.09
2017-06-10T09:23:04.843Z,16.10
2017-06-10T09:24:05.469Z,16.20
2017-06-10T09:25:06.090Z,16.08
2017-06-10T09:26:06.763Z,16.26
2017-06-10T09:27:07.385Z,16.33
2017-06-10T09:28:08.005Z,16.42
2017-06-10T09:29:08.629Z,16.39
2017-06-10T09:30:09.283Z,16.42
2017-06-10T09:31:09.958Z,16.35
2017-06-10T09:32:10.581Z,16.46
2017-06-10T09:33:11.202Z,16.42
2017-06-10T09:34:11.861Z,16.31
2017-06-10T09:35:12.478Z,16.39
2017-06-10T09:36:13.152Z,16.35
2017-06-10T09:37:13.767Z,16.41
2017-06-10T09:38:14.386Z,16.41
2017-06-10T09:39:15.007Z,16.26
2017-06-10T09:40:15.626Z,16.23
2017-06-10T09:41:16.296Z,16.26
2017-06-10T09:42:16.920Z,16.36
2017-06-10T09:43:17.537Z,16.41
2017-06-10T09:44:18.157Z,16.36
2017-06-10T09:45:18.776Z,16.46
2017-06-10T09:46:19.447Z,16.49
2017-06-10T09:47:20.068Z,16.57
2017-06-10T09:48:20.719Z,16.71
2017-06-10T09:49:21.347Z,16.71
2017-06-10T09:50:21.963Z,16.87
2017-06-10T09:51:22.733Z,16.87
2017-06-10T09:52:23.359Z,16.86
2017-06-10T09:53:23.977Z,16.94
2017-06-10T09:54:24.601Z,17.02
2017-06-10T09:55:25.217Z,17.04
2017-06-10T09:56:25.838Z,17.08
2017-06-10T09:57:26.464Z,17.04
2017-06-10T09:58:27.080Z,17.16
2017-06-10T09:59:27.699Z,17.22
2017-06-10T10:00:28.357Z,17.27
2017-06-10T10:01:29.022Z,17.38
2017-06-10T10:02:29.643Z,17.42
2017-06-10T10:03:30.268Z,17.46
2017-06-10T10:04:30.887Z,17.51
2017-06-10T10:05:31.507Z,17.49
2017-06-10T10:06:32.178Z,17.52
2017-06-10T10:07:32.808Z,17.48
2017-06-10T10:08:33.425Z,17.60
2017-06-10T10:09:34.041Z,17.70
2017-06-10T10:10:34.663Z,17.67
2017-06-10T10:11:35.334Z,17.70
2017-06-10T10:12:35.954Z,17.65
2017-06-10T10:13:36.578Z,17.63
2017-06-10T10:14:37.231Z,17.56
2017-06-10T10:15:37.852Z,17.42
2017-06-10T10:16:38.530Z,17.39
2017-06-10T10:17:39.148Z,17.41
2017-06-10T10:18:39.767Z,17.46
2017-06-10T10:19:40.419Z,17.48
2017-06-10T10:20:41.045Z,17.49
2017-06-10T10:21:41.815Z,17.63
2017-06-10T10:22:42.440Z,17.59
2017-06-10T10:23:43.100Z,17.68
2017-06-10T10:24:43.752Z,17.57
2017-06-10T10:25:44.373Z,17.63
2017-06-10T10:26:45.149Z,17.60
2017-06-10T10:27:45.768Z,17.64
2017-06-10T10:28:46.388Z,17.74
2017-06-10T10:29:47.009Z,17.67
2017-06-10T10:30:47.634Z,17.59
2017-06-10T10:31:48.308Z,17.70
2017-06-10T10:32:48.931Z,17.68
2017-06-10T10:33:49.548Z,17.74
2017-06-10T10:34:50.169Z,17.79
2017-06-10T10:35:50.822Z,17.82
2017-06-10T10:36:51.441Z,17.68
2017-06-10T10:37:52.064Z,17.89
2017-06-10T10:38:52.684Z,17.94
2017-06-10T10:39:53.305Z,17.98
2017-06-10T10:40:53.925Z,18.04
2017-06-10T10:41:54.583Z,18.15
2017-06-10T10:42:55.200Z,18.10
2017-06-10T10:43:55.822Z,18.29
2017-06-10T10:44:56.481Z,18.35
2017-06-10T10:45:57.100Z,18.49
2017-06-10T10:46:57.869Z,18.56
2017-06-10T10:47:58.491Z,18.59
2017-06-10T10:48:59.116Z,18.66
2017-06-10T10:49:59.740Z,18.60
2017-06-10T10:51:00.358Z,18.56
2017-06-10T10:52:01.029Z,18.56
2017-06-10T10:53:01.650Z,18.52
2017-06-10T10:54:02.269Z,18.56
2017-06-10T10:55:02.892Z,18.59
2017-06-10T10:56:03.511Z,18.66
2017-06-10T10:57:04.288Z,18.80
2017-06-10T10:58:04.906Z,18.93
2017-06-10T10:59:05.527Z,18.89
2017-06-10T11:00:06.149Z,18.92
2017-06-10T11:01:06.803Z,18.86
2017-06-10T11:02:07.484Z,18.93
2017-06-10T11:03:08.107Z,19.08
2017-06-10T11:04:08.726Z,19.14
2017-06-10T11:05:09.354Z,19.27
2017-06-10T11:06:09.972Z,19.21
2017-06-10T11:07:10.644Z,19.15
2017-06-10T11:08:11.270Z,19.15
2017-06-10T11:09:11.895Z,19.07
2017-06-10T11:10:12.520Z,19.19
2017-06-10T11:11:13.138Z,19.29
2017-06-10T11:12:13.760Z,19.31
2017-06-10T11:13:14.412Z,19.40
2017-06-10T11:14:15.039Z,19.63
2017-06-10T11:15:15.697Z,19.54
2017-06-10T11:16:16.317Z,19.55
2017-06-10T11:17:17.021Z,19.54
2017-06-10T11:18:17.641Z,19.51
2017-06-10T11:19:18.269Z,19.34
2017-06-10T11:20:18.888Z,19.33
2017-06-10T11:21:19.508Z,19.36
2017-06-10T11:22:20.182Z,19.48
2017-06-10T11:23:20.809Z,19.51
2017-06-10T11:24:21.427Z,19.55
2017-06-10T11:25:22.049Z,19.86
2017-06-10T11:26:22.672Z,19.86
2017-06-10T11:27:23.345Z,19.77
2017-06-10T11:28:23.967Z,19.81
2017-06-10T11:29:24.621Z,19.82
2017-06-10T11:30:25.242Z,19.95
2017-06-10T11:31:25.869Z,19.82
2017-06-10T11:32:26.540Z,19.82
2017-06-10T11:33:27.163Z,19.55
2017-06-10T11:34:27.787Z,19.54
2017-06-10T11:35:28.408Z,19.55
2017-06-10T11:36:29.031Z,19.56
2017-06-10T11:37:29.704Z,19.67
2017-06-10T11:38:30.327Z,19.67
2017-06-10T11:39:30.954Z,19.92
2017-06-10T11:40:31.577Z,19.86
2017-06-10T11:41:32.233Z,19.91
2017-06-10T11:42:33.005Z,19.99
2017-06-10T11:43:33.627Z,20.18
2017-06-10T11:44:34.253Z,20.37
2017-06-10T11:45:34.875Z,20.32
2017-06-10T11:46:35.503Z,20.31
2017-06-10T11:47:36.172Z,20.25
2017-06-10T11:48:36.802Z,20.21
2017-06-10T11:49:37.421Z,20.21
2017-06-10T11:50:38.043Z,20.18
2017-06-10T11:51:38.666Z,20.16
2017-06-10T11:52:39.288Z,20.06
2017-06-10T11:53:39.911Z,19.91
2017-06-10T11:54:40.541Z,19.91
2017-06-10T11:55:41.201Z,19.88
2017-06-10T11:56:41.821Z,19.92
2017-06-10T11:57:42.442Z,19.89
2017-06-10T11:58:43.071Z,20.06
2017-06-10T11:59:43.692Z,20.07
2017-06-10T12:00:44.318Z,20.28
2017-06-10T12:01:44.942Z,20.31
2017-06-10T12:02:45.618Z,20.59
2017-06-10T12:03:46.245Z,20.55
2017-06-10T12:04:46.866Z,20.36
2017-06-10T12:05:47.492Z,20.36
2017-06-10T12:06:48.117Z,20.26
2017-06-10T12:07:48.788Z,20.11
2017-06-10T12:08:49.444Z,20.10
2017-06-10T12:09:50.068Z,20.22
2017-06-10T12:10:50.690Z,20.32
2017-06-10T12:11:51.350Z,20.36
2017-06-10T12:12:51.969Z,20.40
2017-06-10T12:13:52.593Z,20.48
2017-06-10T12:14:53.217Z,20.50
2017-06-10T12:15:53.840Z,20.55
2017-06-10T12:16:54.462Z,20.60
2017-06-10T12:17:55.095Z,20.72
2017-06-10T12:18:55.710Z,20.85
2017-06-10T12:19:56.334Z,20.99
2017-06-10T12:20:56.991Z,20.99
2017-06-10T12:21:57.620Z,20.99
2017-06-10T12:22:58.396Z,20.90
2017-06-10T12:23:59.022Z,20.92
2017-06-10T12:24:59.679Z,20.95
2017-06-10T12:26:00.302Z,20.99
2017-06-10T12:27:00.924Z,20.92
2017-06-10T12:28:01.552Z,20.93
2017-06-10T12:29:02.180Z,20.88
2017-06-10T12:30:02.801Z,21.02
2017-06-10T12:31:03.423Z,21.06
2017-06-10T12:32:04.052Z,20.97
2017-06-10T12:33:04.728Z,21.06
2017-06-10T12:34:05.349Z,20.87
2017-06-10T12:35:05.978Z,20.72
2017-06-10T12:36:06.601Z,20.88
2017-06-10T12:37:07.224Z,21.02
2017-06-10T12:38:07.847Z,21.06
2017-06-10T12:39:08.471Z,21.00
2017-06-10T12:40:09.095Z,20.95
2017-06-10T12:41:09.717Z,21.02
2017-06-10T12:42:10.341Z,21.07
2017-06-10T12:43:10.966Z,20.99
2017-06-10T12:44:11.625Z,21.05
2017-06-10T12:45:12.283Z,21.07
2017-06-10T12:46:12.911Z,21.25
2017-06-10T12:47:13.537Z,21.40
2017-06-10T12:48:14.208Z,21.60
2017-06-10T12:49:14.832Z,21.67
2017-06-10T12:50:15.456Z,21.48
2017-06-10T12:51:16.084Z,21.51
2017-06-10T12:52:16.709Z,21.42
2017-06-10T12:53:17.416Z,21.60
2017-06-10T12:54:18.042Z,21.62
2017-06-10T12:55:18.663Z,21.60
2017-06-10T12:56:19.319Z,21.54
2017-06-10T12:57:19.945Z,21.45
2017-06-10T12:58:20.618Z,21.32
2017-06-10T12:59:21.242Z,21.48
2017-06-10T13:00:21.866Z,21.46